Sirius — 5BCT3 — position and weather

sailwx.info

Track history (hours):
 
Tides and Currents Weather Stations Pressure Air Temp Water Temp Dewpoint Dewpoint Depression Visibility Wind Speed Wind Dir Waves Ship Positions

Sirius

Last reported at 2017-Sep-25 17:20 UTC. Time now 2017-Sep-26 11:07 UTC.
Position N 37°11' E 013°23'.

Length 180 m; draft 9.5 m.

Type: Cargo ship. MMSI: 209533000.

Date/timePositionNaut miles runAvg speedWind from/ knotsBaromVisibWave heightAir tempDewpointWater temp
2017-Sep-25 17:20N 37°11' E 013°23'4414.9
2017-Sep-25 14:24N 37°01' E 012°29'  
2017-Sep-21 19:33N 36°46' E 003°04'0 0.0
2017-Sep-21 19:27N 36°46' E 003°04'  
2017-Sep-18 14:32N 36°46' E 003°05'0 2.0
2017-Sep-18 14:30N 36°46' E 003°05'1 2.2
2017-Sep-18 13:56N 36°47' E 003°06'95 6.8
2017-Sep-18 00:02N 36°46' E 001°07'30512.8
2017-Sep-17 00:15N 36°01' W 005°08'415.0
2017-Sep-17 00:00N 36°00' W 005°12'714.5
2017-Sep-16 23:31N 35°59' W 005°21'713.4
2017-Sep-16 23:00N 35°57' W 005°29'16311.8
2017-Sep-16 09:10N 36°28' W 008°47'613.7
2017-Sep-16 08:43N 36°30' W 008°55'12210.9
2017-Sep-15 21:32N 38°20' W 009°60'212.5
2017-Sep-15 21:23N 38°22' W 010°00'512.6
2017-Sep-15 20:57N 38°28' W 010°02'812.4
2017-Sep-15 20:17N 38°36' W 010°04'512.2
2017-Sep-15 19:55N 38°40' W 010°05'512.4
2017-Sep-15 19:30N 38°45' W 010°06'612.4
2017-Sep-15 19:00N 38°51' W 010°06'612.0
2017-Sep-15 18:31N 38°57' W 010°06'611.9
2017-Sep-15 18:00N 39°03' W 010°06'611.7
2017-Sep-15 17:30N 39°09' W 010°06'  
Track history (hours):
 
Tides and Currents Weather Stations Pressure Air Temp Water Temp Dewpoint Dewpoint Depression Visibility Wind Speed Wind Dir Waves Ship Positions

Sirius

Last reported at 2017-Sep-25 17:20 UTC. Time now 2017-Sep-26 11:07 UTC.
Position N 37°11' E 013°23'.

Length 180 m; draft 9.5 m.

Type: Cargo ship. MMSI: 209533000.

Date/timePositionNaut miles runAvg speedWind from/ knotsBaromVisibWave heightAir tempDewpointWater temp
2017-Sep-25 17:20N 37°11' E 013°23'4414.9
2017-Sep-25 14:24N 37°01' E 012°29'  
2017-Sep-21 19:33N 36°46' E 003°04'0 0.0
2017-Sep-21 19:27N 36°46' E 003°04'  
2017-Sep-18 14:32N 36°46' E 003°05'0 2.0
2017-Sep-18 14:30N 36°46' E 003°05'1 2.2
2017-Sep-18 13:56N 36°47' E 003°06'95 6.8
2017-Sep-18 00:02N 36°46' E 001°07'30512.8
2017-Sep-17 00:15N 36°01' W 005°08'415.0
2017-Sep-17 00:00N 36°00' W 005°12'714.5
2017-Sep-16 23:31N 35°59' W 005°21'713.4
2017-Sep-16 23:00N 35°57' W 005°29'16311.8
2017-Sep-16 09:10N 36°28' W 008°47'613.7
2017-Sep-16 08:43N 36°30' W 008°55'12210.9
2017-Sep-15 21:32N 38°20' W 009°60'212.5
2017-Sep-15 21:23N 38°22' W 010°00'512.6
2017-Sep-15 20:57N 38°28' W 010°02'812.4
2017-Sep-15 20:17N 38°36' W 010°04'512.2
2017-Sep-15 19:55N 38°40' W 010°05'512.4
2017-Sep-15 19:30N 38°45' W 010°06'612.4
2017-Sep-15 19:00N 38°51' W 010°06'612.0
2017-Sep-15 18:31N 38°57' W 010°06'611.9
2017-Sep-15 18:00N 39°03' W 010°06'611.7
2017-Sep-15 17:30N 39°09' W 010°06'  

Dump ship's entire track history